createdAt,value
2018-01-07T00:00:28.837Z,5.23
2018-01-07T00:02:57.304Z,4.83
2018-01-07T00:05:25.044Z,4.49
2018-01-07T00:07:52.849Z,4.30
2018-01-07T00:10:20.519Z,4.24
2018-01-07T00:18:58.041Z,4.68
2018-01-07T00:21:25.692Z,4.53
2018-01-07T00:23:54.432Z,3.76
2018-01-07T00:26:23.274Z,3.68
2018-01-07T00:28:51.857Z,3.45
2018-01-07T00:31:20.318Z,3.68
2018-01-07T00:33:49.411Z,3.84
2018-01-07T00:36:17.074Z,3.81
2018-01-07T00:38:46.574Z,4.09
2018-01-07T00:41:14.208Z,4.11
2018-01-07T00:43:56.576Z,4.29
2018-01-07T00:46:24.470Z,4.20
2018-01-07T00:48:52.098Z,4.33
2018-01-07T00:51:19.704Z,4.35
2018-01-07T00:53:47.314Z,4.27
2018-01-07T00:56:15.670Z,4.38
2018-01-07T00:58:43.395Z,4.47
2018-01-07T01:01:11.122Z,4.62
2018-01-07T01:03:39.048Z,4.88
2018-01-07T01:06:06.837Z,4.82
2018-01-07T01:08:34.642Z,4.66
2018-01-07T01:11:02.216Z,4.53
2018-01-07T01:13:29.855Z,4.64
2018-01-07T01:15:58.201Z,4.77
2018-01-07T01:18:25.894Z,4.73
2018-01-07T01:20:53.703Z,4.64
2018-01-07T01:23:21.306Z,4.58
2018-01-07T01:25:50.073Z,4.98
2018-01-07T01:28:18.180Z,4.50
2018-01-07T01:30:45.824Z,4.42
2018-01-07T01:33:15.075Z,4.34
2018-01-07T01:35:43.073Z,4.30
2018-01-07T01:38:10.704Z,4.17
2018-01-07T01:40:38.313Z,4.27
2018-01-07T01:43:06.102Z,4.17
2018-01-07T01:45:33.728Z,4.03
2018-01-07T01:48:01.356Z,4.07
2018-01-07T01:50:28.981Z,3.92
2018-01-07T01:52:56.621Z,4.04
2018-01-07T01:55:24.239Z,4.21
2018-01-07T01:57:52.345Z,3.91
2018-01-07T02:00:20.093Z,3.84
2018-01-07T02:02:47.726Z,4.13
2018-01-07T02:05:16.038Z,3.90
2018-01-07T02:07:43.618Z,4.45
2018-01-07T02:10:11.265Z,4.27
2018-01-07T02:12:38.889Z,4.02
2018-01-07T02:15:06.480Z,4.08
2018-01-07T02:17:34.332Z,4.06
2018-01-07T02:20:01.916Z,4.16
2018-01-07T02:22:29.762Z,4.39
2018-01-07T02:24:57.553Z,4.29
2018-01-07T02:27:25.358Z,4.16
2018-01-07T02:29:53.051Z,4.26
2018-01-07T02:32:21.065Z,4.11
2018-01-07T02:34:49.263Z,3.60
2018-01-07T02:37:16.864Z,3.44
2018-01-07T02:39:44.552Z,3.81
2018-01-07T02:42:12.168Z,3.37
2018-01-07T02:44:40.619Z,4.02
2018-01-07T02:47:08.258Z,3.72
2018-01-07T02:49:35.836Z,3.72
2018-01-07T02:52:04.431Z,3.45
2018-01-07T02:54:32.094Z,3.46
2018-01-07T02:56:59.769Z,3.50
2018-01-07T02:59:27.405Z,3.39
2018-01-07T03:01:55.168Z,3.37
2018-01-07T03:04:22.971Z,3.58
2018-01-07T03:06:50.619Z,3.68
2018-01-07T03:09:18.271Z,3.85
2018-01-07T03:11:45.907Z,3.53
2018-01-07T03:14:13.558Z,3.51
2018-01-07T03:16:41.218Z,3.29
2018-01-07T03:19:08.868Z,3.50
2018-01-07T03:21:36.454Z,4.14
2018-01-07T03:24:04.248Z,4.05
2018-01-07T03:26:31.878Z,3.70
2018-01-07T03:28:59.744Z,3.00
2018-01-07T03:31:27.488Z,3.68
2018-01-07T03:33:55.152Z,3.56
2018-01-07T03:36:22.682Z,3.24
2018-01-07T03:38:50.585Z,3.30
2018-01-07T03:41:18.183Z,3.77
2018-01-07T03:43:48.187Z,3.36
2018-01-07T03:48:51.296Z,3.40
2018-01-07T03:51:18.966Z,4.05
2018-01-07T03:53:46.617Z,4.30
2018-01-07T03:56:14.227Z,4.10
2018-01-07T03:58:41.854Z,3.50
2018-01-07T04:01:10.033Z,3.77
2018-01-07T04:03:37.698Z,3.61
2018-01-07T04:06:05.386Z,3.48
2018-01-07T04:08:33.059Z,3.59
2018-01-07T04:11:00.694Z,3.47
2018-01-07T04:13:28.277Z,3.19
2018-01-07T04:15:56.914Z,3.42
2018-01-07T04:18:24.785Z,3.25
2018-01-07T04:20:52.437Z,2.93
2018-01-07T04:23:20.196Z,3.37
2018-01-07T04:25:47.817Z,3.01
2018-01-07T04:28:15.427Z,3.17
2018-01-07T04:30:43.298Z,3.04
2018-01-07T04:33:10.874Z,3.03
2018-01-07T04:35:39.128Z,2.99
2018-01-07T04:38:06.851Z,3.00
2018-01-07T04:40:34.418Z,2.98
2018-01-07T04:43:02.306Z,3.00
2018-01-07T04:45:30.108Z,3.21
2018-01-07T04:47:57.752Z,3.35
2018-01-07T04:50:25.349Z,3.03
2018-01-07T04:52:52.932Z,2.71
2018-01-07T04:55:20.675Z,3.03
2018-01-07T04:57:48.346Z,2.79
2018-01-07T05:00:16.029Z,2.67
2018-01-07T05:02:43.963Z,2.43
2018-01-07T05:05:11.658Z,3.06
2018-01-07T05:07:39.555Z,2.71
2018-01-07T05:10:08.056Z,3.10
2018-01-07T05:12:35.844Z,2.89
2018-01-07T05:15:03.481Z,3.22
2018-01-07T05:17:34.164Z,3.19
2018-01-07T05:20:03.898Z,3.09
2018-01-07T05:22:35.113Z,3.00
2018-01-07T05:25:04.283Z,2.96
2018-01-07T05:27:32.084Z,2.86
2018-01-07T05:30:00.426Z,2.83
2018-01-07T05:32:31.268Z,2.94
2018-01-07T05:34:59.136Z,2.88
2018-01-07T05:37:27.200Z,2.81
2018-01-07T05:39:54.812Z,2.75
2018-01-07T05:42:22.488Z,2.91
2018-01-07T05:44:50.056Z,2.90
2018-01-07T05:47:17.683Z,3.03
2018-01-07T05:49:45.893Z,3.37
2018-01-07T05:52:13.651Z,3.24
2018-01-07T05:54:41.580Z,3.25
2018-01-07T05:57:10.113Z,3.65
2018-01-07T05:59:37.879Z,3.53
2018-01-07T06:02:05.458Z,3.45
2018-01-07T06:04:33.065Z,3.52
2018-01-07T06:07:00.729Z,3.68
2018-01-07T06:09:28.301Z,4.25
2018-01-07T06:11:55.970Z,4.01
2018-01-07T06:14:24.577Z,3.85
2018-01-07T06:16:52.264Z,3.95
2018-01-07T06:19:19.928Z,4.46
2018-01-07T06:21:47.714Z,5.09
2018-01-07T06:24:15.835Z,5.33
2018-01-07T06:26:43.568Z,5.65
2018-01-07T06:29:11.523Z,5.49
2018-01-07T06:31:39.149Z,5.92
2018-01-07T06:34:06.758Z,6.05
2018-01-07T06:36:34.490Z,6.19
2018-01-07T06:39:02.148Z,5.87
2018-01-07T06:41:29.777Z,6.49
2018-01-07T06:43:57.361Z,6.42
2018-01-07T06:46:24.985Z,6.84
2018-01-07T06:48:52.661Z,6.87
2018-01-07T06:51:20.290Z,7.34
2018-01-07T06:53:48.007Z,7.27
2018-01-07T06:56:15.684Z,7.56
2018-01-07T06:58:43.335Z,8.00
2018-01-07T07:01:11.016Z,9.06
2018-01-07T07:03:38.673Z,8.99
2018-01-07T07:06:06.477Z,8.64
2018-01-07T07:08:34.302Z,9.11
2018-01-07T07:11:01.965Z,9.12
2018-01-07T07:13:30.542Z,9.42
2018-01-07T07:15:58.145Z,9.76
2018-01-07T07:18:25.866Z,10.02
2018-01-07T07:21:11.243Z,10.27
2018-01-07T07:23:38.912Z,10.42
2018-01-07T07:26:06.551Z,10.31
2018-01-07T07:28:34.312Z,10.73
2018-01-07T07:31:01.975Z,9.88
2018-01-07T07:33:34.671Z,10.42
2018-01-07T07:36:02.989Z,11.28
2018-01-07T07:38:30.803Z,10.79
2018-01-07T07:40:58.651Z,10.70
2018-01-07T07:43:28.082Z,11.09
2018-01-07T07:45:55.751Z,11.08
2018-01-07T07:48:23.624Z,11.63
2018-01-07T07:50:51.264Z,12.11
2018-01-07T07:53:18.925Z,12.36
2018-01-07T07:55:46.707Z,12.06
2018-01-07T07:58:14.324Z,11.80
2018-01-07T08:00:41.983Z,11.74
2018-01-07T08:03:09.570Z,11.79
2018-01-07T08:05:37.172Z,12.55
2018-01-07T08:08:04.868Z,13.51
2018-01-07T08:10:32.866Z,12.90
2018-01-07T08:13:00.558Z,13.96
2018-01-07T08:15:29.065Z,13.05
2018-01-07T08:17:56.789Z,13.26
2018-01-07T08:20:24.509Z,13.20
2018-01-07T08:22:52.490Z,12.78
2018-01-07T08:25:20.231Z,14.13
2018-01-07T08:27:47.862Z,13.14
2018-01-07T08:30:15.539Z,13.31
2018-01-07T08:32:43.447Z,13.54
2018-01-07T08:35:11.137Z,14.14
2018-01-07T08:37:38.801Z,13.36
2018-01-07T08:40:06.426Z,13.60
2018-01-07T08:42:34.229Z,13.09
2018-01-07T08:45:02.103Z,13.36
2018-01-07T08:47:29.901Z,14.77
2018-01-07T08:49:57.661Z,13.44
2018-01-07T08:52:25.278Z,13.72
2018-01-07T08:54:52.842Z,14.35
2018-01-07T08:57:20.655Z,15.22
2018-01-07T08:59:48.353Z,16.26
2018-01-07T09:02:16.096Z,15.04
2018-01-07T09:04:43.716Z,15.23
2018-01-07T09:07:11.450Z,15.59
2018-01-07T09:09:39.745Z,16.02
2018-01-07T09:12:08.484Z,17.27
2018-01-07T09:14:36.037Z,16.72
2018-01-07T09:17:03.627Z,16.78
2018-01-07T09:19:31.293Z,17.66
2018-01-07T09:21:58.912Z,18.13
2018-01-07T09:24:26.629Z,19.06
2018-01-07T09:26:55.359Z,19.40
2018-01-07T09:29:25.025Z,20.00
2018-01-07T09:31:52.729Z,19.80
2018-01-07T09:34:20.538Z,21.56
2018-01-07T09:36:48.128Z,21.85
2018-01-07T09:39:15.932Z,22.37
2018-01-07T09:41:43.499Z,22.80
2018-01-07T09:44:11.083Z,20.36
2018-01-07T09:46:38.686Z,19.02
2018-01-07T09:49:06.348Z,19.09
2018-01-07T09:51:33.971Z,19.33
2018-01-07T09:54:02.101Z,19.69
2018-01-07T09:56:29.665Z,19.05
2018-01-07T09:58:57.242Z,19.34
2018-01-07T10:01:24.858Z,19.44
2018-01-07T10:03:52.494Z,19.80
2018-01-07T10:06:20.676Z,18.75
2018-01-07T10:08:48.282Z,19.44
2018-01-07T10:11:16.181Z,18.81
2018-01-07T10:13:44.231Z,19.75
2018-01-07T10:16:11.884Z,18.96
2018-01-07T10:18:40.577Z,19.57
2018-01-07T10:21:09.176Z,18.82
2018-01-07T10:26:30.605Z,18.72
2018-01-07T10:28:58.693Z,19.54
2018-01-07T10:31:26.376Z,19.67
2018-01-07T10:33:54.184Z,18.68
2018-01-07T10:36:21.797Z,18.74
2018-01-07T10:38:49.354Z,18.07
2018-01-07T10:41:17.909Z,18.51
2018-01-07T10:43:46.627Z,18.49
2018-01-07T10:46:14.319Z,18.77
2018-01-07T10:48:42.794Z,18.88
2018-01-07T10:51:10.458Z,17.95
2018-01-07T10:56:32.327Z,18.12
2018-01-07T10:59:01.174Z,18.28
2018-01-07T11:01:34.256Z,18.08
2018-01-07T11:04:01.867Z,18.65
2018-01-07T11:06:30.323Z,18.56
2018-01-07T11:08:59.449Z,18.83
2018-01-07T11:11:27.168Z,18.32
2018-01-07T11:13:56.193Z,18.15
2018-01-07T11:16:23.875Z,18.47
2018-01-07T11:18:51.531Z,18.76
2018-01-07T11:21:19.331Z,18.40
2018-01-07T11:23:47.079Z,17.94
2018-01-07T11:26:20.825Z,18.16
2018-01-07T11:28:48.583Z,17.06
2018-01-07T11:31:16.295Z,18.15
2018-01-07T11:33:45.491Z,17.72
2018-01-07T11:36:13.109Z,17.36
2018-01-07T11:38:40.692Z,16.92
2018-01-07T11:41:30.044Z,17.38
2018-01-07T11:43:57.965Z,17.53
2018-01-07T11:46:27.712Z,18.02
2018-01-07T11:48:55.531Z,18.12
2018-01-07T11:51:23.277Z,18.02
2018-01-07T11:53:51.315Z,18.43
2018-01-07T11:56:19.088Z,17.81
2018-01-07T11:58:47.557Z,18.23
2018-01-07T12:01:15.451Z,18.14
2018-01-07T12:03:43.765Z,18.41
2018-01-07T12:06:11.467Z,18.41
2018-01-07T12:08:39.096Z,17.89
2018-01-07T12:11:06.749Z,17.87
2018-01-07T12:13:36.467Z,17.81
2018-01-07T12:16:05.054Z,17.51
2018-01-07T12:18:35.364Z,17.45
2018-01-07T12:21:03.322Z,17.22
2018-01-07T12:23:47.321Z,17.61
2018-01-07T12:26:15.099Z,16.92
2018-01-07T12:28:42.704Z,17.56
2018-01-07T12:31:11.641Z,17.62
2018-01-07T12:33:39.419Z,17.02
2018-01-07T12:36:07.020Z,16.97
2018-01-07T12:38:34.627Z,16.96
2018-01-07T12:41:02.643Z,17.13
2018-01-07T12:43:31.560Z,17.17
2018-01-07T12:45:59.607Z,17.15
2018-01-07T12:48:28.029Z,16.58
2018-01-07T12:50:55.587Z,16.84
2018-01-07T12:53:23.266Z,17.01
2018-01-07T12:55:51.145Z,16.87
2018-01-07T12:58:18.742Z,16.80
2018-01-07T13:00:46.378Z,16.16
2018-01-07T13:03:14.002Z,15.86
2018-01-07T13:05:41.769Z,15.74
2018-01-07T13:08:09.433Z,15.06
2018-01-07T13:10:37.174Z,14.82
2018-01-07T13:13:09.079Z,13.73
2018-01-07T13:15:43.115Z,13.80
2018-01-07T13:18:13.847Z,13.50
2018-01-07T13:20:41.733Z,14.27
2018-01-07T13:23:09.698Z,14.58
2018-01-07T13:25:42.222Z,13.96
2018-01-07T13:28:10.063Z,14.08
2018-01-07T13:30:37.961Z,14.14
2018-01-07T13:33:06.291Z,13.79
2018-01-07T13:35:34.780Z,14.38
2018-01-07T13:38:03.691Z,14.18
2018-01-07T13:40:31.361Z,14.17
2018-01-07T13:42:59.017Z,13.94
2018-01-07T13:45:27.104Z,14.37
2018-01-07T13:47:54.747Z,14.63
2018-01-07T13:50:22.597Z,14.02
2018-01-07T13:52:51.785Z,14.23
2018-01-07T13:55:19.507Z,13.60
2018-01-07T13:57:47.075Z,14.06
2018-01-07T14:00:14.918Z,14.02
2018-01-07T14:02:42.581Z,14.49
2018-01-07T14:05:10.272Z,14.60
2018-01-07T14:07:39.682Z,14.07
2018-01-07T14:10:07.277Z,14.00
2018-01-07T14:12:35.113Z,13.49
2018-01-07T14:15:03.061Z,13.46
2018-01-07T14:17:30.698Z,13.51
2018-01-07T14:19:58.430Z,13.15
2018-01-07T14:22:40.720Z,13.11
2018-01-07T14:25:08.401Z,12.77
2018-01-07T14:27:36.162Z,12.89
2018-01-07T14:30:08.000Z,13.28
2018-01-07T14:32:35.718Z,13.20
2018-01-07T14:35:03.257Z,12.62
2018-01-07T14:37:30.897Z,12.84
2018-01-07T14:39:58.513Z,12.58
2018-01-07T14:42:27.219Z,12.35
2018-01-07T14:44:55.314Z,12.78
2018-01-07T14:47:22.954Z,12.35
2018-01-07T14:49:50.644Z,12.39
2018-01-07T14:52:18.329Z,12.74
2018-01-07T14:54:50.830Z,12.80
2018-01-07T14:57:19.447Z,12.46
2018-01-07T14:59:47.024Z,12.39
2018-01-07T15:02:14.616Z,12.47
2018-01-07T15:04:43.038Z,12.14
2018-01-07T15:07:10.645Z,12.42
2018-01-07T15:09:39.518Z,12.21
2018-01-07T15:12:07.079Z,11.89
2018-01-07T15:14:35.026Z,12.07
2018-01-07T15:17:02.619Z,12.07
2018-01-07T15:19:31.235Z,11.93
2018-01-07T15:21:58.865Z,12.00
2018-01-07T15:24:26.854Z,12.07
2018-01-07T15:26:54.840Z,12.04
2018-01-07T15:29:22.477Z,12.03
2018-01-07T15:31:50.074Z,11.80
2018-01-07T15:34:17.796Z,12.08
2018-01-07T15:36:45.520Z,11.95
2018-01-07T15:39:13.226Z,11.98
2018-01-07T15:41:40.845Z,11.65
2018-01-07T15:44:09.370Z,11.89
2018-01-07T15:46:37.585Z,11.90
2018-01-07T15:49:05.319Z,11.74
2018-01-07T15:51:37.933Z,11.81
2018-01-07T15:54:07.339Z,11.63
2018-01-07T15:56:35.130Z,11.67
2018-01-07T15:59:02.810Z,11.33
2018-01-07T16:01:30.719Z,11.19
2018-01-07T16:03:58.583Z,10.70
2018-01-07T16:06:26.276Z,10.81
2018-01-07T16:08:53.908Z,11.13
2018-01-07T16:11:21.987Z,11.10
2018-01-07T16:13:49.762Z,10.89
2018-01-07T16:16:17.479Z,11.09
2018-01-07T16:18:45.412Z,10.81
2018-01-07T16:21:21.306Z,10.77
2018-01-07T16:26:28.631Z,10.71
2018-01-07T16:28:56.858Z,10.43
2018-01-07T16:31:24.664Z,10.16
2018-01-07T16:33:52.923Z,10.21
2018-01-07T16:36:20.685Z,10.24
2018-01-07T16:38:48.434Z,10.27
2018-01-07T16:41:16.019Z,10.30
2018-01-07T16:43:43.650Z,10.31
2018-01-07T16:46:12.844Z,10.19
2018-01-07T16:48:40.402Z,9.95
2018-01-07T16:51:08.045Z,10.14
2018-01-07T16:53:35.961Z,10.29
2018-01-07T16:56:12.059Z,10.22
2018-01-07T16:58:40.381Z,10.19
2018-01-07T17:01:08.281Z,10.16
2018-01-07T17:03:36.166Z,10.33
2018-01-07T17:06:15.322Z,9.97
2018-01-07T17:08:43.149Z,10.35
2018-01-07T17:11:47.871Z,9.97
2018-01-07T17:14:16.018Z,10.12
2018-01-07T17:16:44.652Z,9.90
2018-01-07T17:19:12.471Z,9.45
2018-01-07T17:21:40.173Z,9.76
2018-01-07T17:24:09.231Z,9.68
2018-01-07T17:26:42.784Z,9.42
2018-01-07T17:29:10.464Z,9.90
2018-01-07T17:31:40.127Z,9.55
2018-01-07T17:34:08.290Z,9.31
2018-01-07T17:36:36.866Z,9.13
2018-01-07T17:39:06.432Z,8.69
2018-01-07T17:41:36.578Z,8.99
2018-01-07T17:44:05.556Z,8.94
2018-01-07T17:46:33.215Z,8.85
2018-01-07T17:49:00.912Z,8.61
2018-01-07T17:51:31.551Z,8.80
2018-01-07T17:53:59.973Z,8.97
2018-01-07T17:56:28.184Z,9.29
2018-01-07T17:58:56.189Z,8.95
2018-01-07T18:01:23.921Z,8.98
2018-01-07T18:03:52.091Z,9.06
2018-01-07T18:06:19.742Z,8.84
2018-01-07T18:08:48.348Z,8.88
2018-01-07T18:11:16.652Z,9.21
2018-01-07T18:13:45.824Z,9.26
2018-01-07T18:16:13.443Z,9.26
2018-01-07T18:18:41.755Z,8.96
2018-01-07T18:21:11.881Z,8.83
2018-01-07T18:23:39.852Z,9.20
2018-01-07T18:26:07.645Z,9.18
2018-01-07T18:28:35.648Z,8.81
2018-01-07T18:31:03.320Z,9.19
2018-01-07T18:33:30.995Z,9.09
2018-01-07T18:36:00.099Z,9.33
2018-01-07T18:38:28.700Z,9.40
2018-01-07T18:40:59.113Z,9.45
2018-01-07T18:43:26.959Z,9.42
2018-01-07T18:45:56.648Z,8.84
2018-01-07T18:48:25.154Z,8.60
2018-01-07T18:50:53.630Z,9.00
2018-01-07T18:53:21.838Z,8.59
2018-01-07T18:55:49.593Z,8.41
2018-01-07T18:58:17.329Z,8.06
2018-01-07T19:00:44.969Z,8.17
2018-01-07T19:03:12.643Z,8.39
2018-01-07T19:05:42.498Z,8.26
2018-01-07T19:08:10.157Z,8.19
2018-01-07T19:10:40.774Z,7.93
2018-01-07T19:13:09.936Z,8.10
2018-01-07T19:15:38.929Z,8.26
2018-01-07T19:18:10.781Z,8.30
2018-01-07T19:20:40.036Z,8.24
2018-01-07T19:23:07.688Z,8.09
2018-01-07T19:25:35.382Z,8.11
2018-01-07T19:28:03.114Z,7.77
2018-01-07T19:30:30.797Z,7.86
2018-01-07T19:32:58.758Z,8.06
2018-01-07T19:35:26.874Z,8.05
2018-01-07T19:37:55.244Z,7.84
2018-01-07T19:40:23.071Z,7.72
2018-01-07T19:42:50.801Z,7.76
2018-01-07T19:45:20.916Z,7.82
2018-01-07T19:47:49.933Z,7.77
2018-01-07T19:50:17.877Z,7.59
2018-01-07T19:52:50.169Z,7.86
2018-01-07T19:55:17.833Z,7.93
2018-01-07T19:57:45.470Z,7.56
2018-01-07T20:00:13.610Z,7.81
2018-01-07T20:02:41.424Z,8.08
2018-01-07T20:05:19.849Z,7.81
2018-01-07T20:07:48.431Z,7.94
2018-01-07T20:10:16.169Z,7.44
2018-01-07T20:12:51.320Z,7.63
2018-01-07T20:15:19.965Z,8.04
2018-01-07T20:17:48.518Z,7.88
2018-01-07T20:20:17.450Z,7.66
2018-01-07T20:22:45.141Z,7.71
2018-01-07T20:25:21.280Z,6.87
2018-01-07T20:31:31.132Z,7.40
2018-01-07T20:34:04.740Z,6.99
2018-01-07T20:54:18.227Z,6.71
2018-01-07T20:56:46.007Z,7.36
2018-01-07T20:59:13.982Z,7.15
2018-01-07T21:01:41.638Z,7.26
2018-01-07T21:04:09.269Z,7.07
2018-01-07T21:06:38.941Z,7.05
2018-01-07T21:09:06.698Z,7.23
2018-01-07T21:11:36.796Z,7.41
2018-01-07T21:14:04.414Z,6.97
2018-01-07T21:16:32.227Z,6.49
2018-01-07T21:18:59.786Z,6.87
2018-01-07T21:21:27.404Z,6.87
2018-01-07T21:23:55.577Z,7.11
2018-01-07T21:26:23.134Z,6.84
2018-01-07T21:28:59.631Z,6.82
2018-01-07T21:31:27.329Z,6.91
2018-01-07T21:33:55.815Z,6.42
2018-01-07T21:36:23.589Z,6.78
2018-01-07T21:38:51.628Z,6.60
2018-01-07T21:41:20.452Z,7.06
2018-01-07T21:43:49.314Z,6.62
2018-01-07T21:46:17.869Z,6.44
2018-01-07T21:48:47.017Z,6.29
2018-01-07T21:51:14.698Z,6.49
2018-01-07T21:53:43.130Z,6.45
2018-01-07T21:56:10.838Z,6.35
2018-01-07T21:58:39.223Z,6.47
2018-01-07T22:01:18.779Z,6.83
2018-01-07T22:03:58.247Z,6.83
2018-01-07T22:06:38.374Z,6.56
2018-01-07T22:09:06.861Z,6.94
2018-01-07T22:11:36.320Z,6.83
2018-01-07T22:19:59.545Z,6.84
2018-01-07T22:23:08.291Z,6.34
2018-01-07T22:39:39.808Z,6.55
2018-01-07T22:42:07.461Z,6.70
2018-01-07T22:44:45.166Z,5.43
2018-01-07T22:47:13.873Z,6.40
2018-01-07T22:49:41.598Z,6.78
2018-01-07T22:52:13.843Z,6.44
2018-01-07T22:54:41.760Z,6.28
2018-01-07T22:57:09.408Z,6.54
2018-01-07T22:59:37.196Z,6.57
2018-01-07T23:02:04.953Z,6.13
2018-01-07T23:04:35.584Z,6.13
2018-01-07T23:07:05.730Z,5.60
2018-01-07T23:16:36.522Z,6.37
2018-01-07T23:19:06.111Z,5.99
2018-01-07T23:29:11.423Z,6.09
2018-01-07T23:31:50.541Z,5.72
2018-01-07T23:34:19.214Z,5.99
2018-01-07T23:37:15.990Z,5.38
2018-01-07T23:39:46.819Z,5.77
2018-01-07T23:42:14.979Z,5.53
2018-01-07T23:44:43.558Z,4.57
2018-01-07T23:47:11.579Z,4.26
2018-01-07T23:49:41.059Z,4.89
2018-01-07T23:52:08.744Z,5.34
2018-01-07T23:54:36.340Z,4.94
2018-01-07T23:57:03.977Z,4.96
2018-01-07T23:59:33.457Z,4.85
